Time;durP1;ratioP1;P1;durP2;ratioP2;P2;SDS_P1;SDS_P2;PMS_P1;PMS_P2;Temp;Humidity;BMP_temperature;BMP_pressure;BME280_temperature;BME280_humidity;BME280_pressure;Samples;Min_cycle;Max_cycle;Signal;HPM_P1;HPM_P2
2023/08/03 00:02:03;0.00;0.00;0.62;0.00;0.00;0.62;2.10;1.63;;;28.70;32.00;;;;;;2267798;61;20537;-58
2023/08/03 00:04:48;0.00;0.00;0.62;0.00;0.00;0.62;1.80;1.10;;;28.70;32.00;;;;;;2268161;61;20366;-58
2023/08/03 00:07:35;0.00;0.00;0.62;0.00;0.00;0.62;1.30;0.70;;;28.70;32.00;;;;;;2266797;61;20433;-59
2023/08/03 00:10:21;0.00;0.00;0.62;0.00;0.00;0.62;2.03;1.20;;;28.70;32.00;;;;;;2267565;61;20363;-61
2023/08/03 00:13:06;0.00;0.00;0.62;0.00;0.00;0.62;1.90;1.07;;;28.70;32.00;;;;;;2267529;61;20444;-59
2023/08/03 00:15:51;0.00;0.00;0.62;0.00;0.00;0.62;1.93;0.80;;;28.70;32.00;;;;;;2266951;61;20894;-61
2023/08/03 00:18:37;0.00;0.00;0.62;0.00;0.00;0.62;1.90;1.07;;;28.70;32.00;;;;;;2267420;61;20876;-61
2023/08/03 00:21:25;0.00;0.00;0.62;0.00;0.00;0.62;1.80;0.97;;;28.70;32.70;;;;;;2265166;61;20443;-58
2023/08/03 00:24:10;0.00;0.00;0.62;0.00;0.00;0.62;2.00;1.30;;;28.70;32.00;;;;;;2267608;61;20831;-60
2023/08/03 00:26:55;0.00;0.00;0.62;0.00;0.00;0.62;2.00;1.20;;;28.70;32.00;;;;;;2268290;61;20365;-61
2023/08/03 00:29:40;0.00;0.00;0.62;0.00;0.00;0.62;2.67;1.07;;;28.70;32.00;;;;;;2263882;61;20382;-60
2023/08/03 00:32:25;0.00;0.00;0.62;0.00;0.00;0.62;1.50;1.00;;;28.70;32.00;;;;;;2269102;61;20460;-60
2023/08/03 00:35:11;0.00;0.00;0.62;0.00;0.00;0.62;1.70;1.00;;;28.70;32.00;;;;;;2265622;61;20416;-58
2023/08/03 00:37:56;0.00;0.00;0.62;0.00;0.00;0.62;1.60;0.97;;;28.70;31.90;;;;;;2264700;61;20468;-63
2023/08/03 00:40:40;0.00;0.00;0.62;0.00;0.00;0.62;1.80;1.10;;;28.70;31.90;;;;;;2261800;61;20360;-61
2023/08/03 00:43:25;0.00;0.00;0.62;0.00;0.00;0.62;2.30;0.93;;;28.70;32.10;;;;;;2264886;61;20766;-54
2023/08/03 00:46:11;0.00;0.00;0.62;0.00;0.00;0.62;2.27;1.00;;;28.70;31.80;;;;;;2258357;61;20414;-58
2023/08/03 00:48:57;0.00;0.00;0.62;0.00;0.00;0.62;1.60;0.90;;;28.70;31.80;;;;;;2264629;61;20395;-56
2023/08/03 00:51:43;0.00;0.00;0.62;0.00;0.00;0.62;1.90;0.97;;;28.70;31.90;;;;;;2264125;61;20368;-59
2023/08/03 00:54:28;0.00;0.00;0.62;0.00;0.00;0.62;1.50;0.83;;;28.70;31.90;;;;;;2262023;61;20422;-59
2023/08/03 00:57:13;0.00;0.00;0.62;0.00;0.00;0.62;1.77;0.97;;;28.70;31.80;;;;;;2264734;61;20850;-60
2023/08/03 00:59:59;0.00;0.00;0.62;0.00;0.00;0.62;2.30;1.07;;;28.70;31.80;;;;;;2260458;61;20386;-60
2023/08/03 01:02:44;0.00;0.00;0.62;0.00;0.00;0.62;1.73;0.90;;;28.70;31.80;;;;;;2261257;61;20364;-60
2023/08/03 01:05:30;0.00;0.00;0.62;0.00;0.00;0.62;1.97;1.37;;;28.70;31.80;;;;;;2264774;61;21075;-55
2023/08/03 01:08:16;0.00;0.00;0.62;0.00;0.00;0.62;1.33;0.80;;;28.70;31.80;;;;;;2263785;61;20785;-59
2023/08/03 01:11:01;0.00;0.00;0.62;0.00;0.00;0.62;1.93;0.90;;;28.70;31.70;;;;;;2264709;61;20364;-60
2023/08/03 01:13:46;0.00;0.00;0.62;0.00;0.00;0.62;2.97;0.90;;;28.70;32.50;;;;;;2264174;61;20442;-62
2023/08/03 01:16:31;0.00;0.00;0.62;0.00;0.00;0.62;1.80;1.00;;;28.70;31.70;;;;;;2264497;61;20367;-59
2023/08/03 01:19:16;0.00;0.00;0.62;0.00;0.00;0.62;1.70;1.03;;;28.70;31.80;;;;;;2264053;61;20884;-57
2023/08/03 01:22:02;0.00;0.00;0.62;0.00;0.00;0.62;2.13;1.00;;;28.70;31.70;;;;;;2263723;61;20946;-60
2023/08/03 01:24:49;0.00;0.00;0.62;0.00;0.00;0.62;3.33;1.20;;;28.70;31.70;;;;;;2264439;61;20398;-59
2023/08/03 01:27:34;0.00;0.00;0.62;0.00;0.00;0.62;1.73;0.83;;;28.70;31.70;;;;;;2264865;61;20417;-57
2023/08/03 01:30:19;0.00;0.00;0.62;0.00;0.00;0.62;3.00;1.00;;;28.70;31.70;;;;;;2263675;61;20375;-59
2023/08/03 01:33:04;0.00;0.00;0.62;0.00;0.00;0.62;2.23;0.90;;;28.70;31.70;;;;;;2264455;61;20379;-56
2023/08/03 01:35:49;0.00;0.00;0.62;0.00;0.00;0.62;2.00;0.93;;;28.70;31.70;;;;;;2263529;61;20383;-62
2023/08/03 01:38:34;0.00;0.00;0.62;0.00;0.00;0.62;1.67;0.80;;;28.70;31.70;;;;;;2585621;45;20384;-61
2023/08/03 01:41:21;0.00;0.00;0.62;0.00;0.00;0.62;2.40;1.30;;;28.60;31.60;;;;;;2264427;61;20908;-53
2023/08/03 01:44:28;0.00;0.00;0.62;0.00;0.00;0.62;1.83;1.03;;;28.60;31.60;;;;;;2263975;61;20368;-62
2023/08/03 01:47:13;0.00;0.00;0.62;0.00;0.00;0.62;2.90;0.97;;;28.60;31.60;;;;;;2264489;61;20406;-59
2023/08/03 01:49:58;0.00;0.00;0.62;0.00;0.00;0.62;3.00;1.00;;;28.60;31.60;;;;;;2264308;61;20415;-55
2023/08/03 01:52:43;0.00;0.00;0.62;0.00;0.00;0.62;1.50;0.90;;;28.60;31.60;;;;;;2264049;61;20387;-61
2023/08/03 01:55:28;0.00;0.00;0.62;0.00;0.00;0.62;2.27;0.90;;;28.60;31.60;;;;;;2264516;61;20526;-57
2023/08/03 01:58:14;0.00;0.00;0.62;0.00;0.00;0.62;2.07;1.00;;;28.60;31.60;;;;;;2263566;61;20434;-56
2023/08/03 02:00:59;0.00;0.00;0.62;0.00;0.00;0.62;1.30;0.80;;;28.60;31.60;;;;;;2261241;61;20498;-60
2023/08/03 02:03:44;0.00;0.00;0.62;0.00;0.00;0.62;1.90;0.80;;;28.60;31.60;;;;;;2264639;61;20453;-60
2023/08/03 02:06:29;0.00;0.00;0.62;0.00;0.00;0.62;1.70;0.90;;;28.60;32.30;;;;;;2263380;61;20372;-59
2023/08/03 02:09:14;0.00;0.00;0.62;0.00;0.00;0.62;2.50;1.10;;;28.60;31.60;;;;;;2264241;61;20418;-59
2023/08/03 02:11:58;0.00;0.00;0.62;0.00;0.00;0.62;2.67;1.10;;;28.60;31.60;;;;;;2264022;61;20435;-59
2023/08/03 02:14:44;0.00;0.00;0.62;0.00;0.00;0.62;1.50;0.90;;;28.60;31.60;;;;;;2263789;61;20378;-61
2023/08/03 02:17:30;0.00;0.00;0.62;0.00;0.00;0.62;3.10;1.23;;;28.60;31.60;;;;;;2261380;61;20364;-60
2023/08/03 02:20:14;0.00;0.00;0.62;0.00;0.00;0.62;2.60;1.00;;;28.60;31.60;;;;;;2264043;61;20356;-58
2023/08/03 02:22:59;0.00;0.00;0.62;0.00;0.00;0.62;1.60;0.80;;;28.50;31.50;;;;;;2260936;61;20887;-55
2023/08/03 02:25:44;0.00;0.00;0.62;0.00;0.00;0.62;2.37;0.97;;;28.50;31.50;;;;;;2264578;61;20414;-57
2023/08/03 02:28:29;0.00;0.00;0.62;0.00;0.00;0.62;1.47;0.90;;;28.50;31.50;;;;;;2263472;61;20415;-60
2023/08/03 02:31:15;0.00;0.00;0.62;0.00;0.00;0.62;1.60;0.97;;;28.50;31.50;;;;;;2264340;61;20453;-58
2023/08/03 02:34:04;0.00;0.00;0.62;0.00;0.00;0.62;1.57;0.87;;;28.50;31.50;;;;;;2261448;61;20377;-60
2023/08/03 02:36:56;0.00;0.00;0.62;0.00;0.00;0.62;2.07;0.93;;;28.50;31.50;;;;;;2260273;61;20890;-57
2023/08/03 02:39:42;0.00;0.00;0.62;0.00;0.00;0.62;2.03;1.20;;;28.50;31.50;;;;;;2267461;61;20524;-56
2023/08/03 02:42:27;0.00;0.00;0.62;0.00;0.00;0.62;3.00;0.80;;;28.50;31.50;;;;;;2269162;61;20377;-56
2023/08/03 02:45:13;0.00;0.00;0.62;0.00;0.00;0.62;2.43;0.90;;;28.50;32.20;;;;;;2269360;61;20357;-59
2023/08/03 02:48:00;0.00;0.00;0.62;0.00;0.00;0.62;2.57;0.90;;;28.50;31.50;;;;;;2268247;60;20373;-60
2023/08/03 02:50:45;0.00;0.00;0.62;0.00;0.00;0.62;1.50;1.00;;;28.50;31.50;;;;;;2268522;61;20462;-57
2023/08/03 02:53:32;0.00;0.00;0.62;0.00;0.00;0.62;2.03;1.03;;;28.50;31.50;;;;;;2269096;61;20402;-58
2023/08/03 02:56:17;0.00;0.00;0.62;0.00;0.00;0.62;1.83;0.90;;;28.50;31.50;;;;;;2269134;61;20456;-57
2023/08/03 02:59:06;0.00;0.00;0.62;0.00;0.00;0.62;2.70;0.80;;;28.50;31.50;;;;;;2271228;60;20933;-59
2023/08/03 03:01:58;0.00;0.00;0.62;0.00;0.00;0.62;1.63;0.90;;;28.50;31.50;;;;;;2269281;61;20959;-56
2023/08/03 03:04:50;0.00;0.00;0.62;0.00;0.00;0.62;1.40;0.80;;;28.50;31.50;;;;;;2267373;61;20403;-62
2023/08/03 03:07:38;0.00;0.00;0.62;0.00;0.00;0.62;1.80;1.10;;;28.40;31.50;;;;;;2272497;61;20436;-59
2023/08/03 03:10:24;0.00;0.00;0.62;0.00;0.00;0.62;1.50;0.90;;;28.50;31.50;;;;;;2268755;61;20395;-56
2023/08/03 03:13:09;0.00;0.00;0.62;0.00;0.00;0.62;1.87;1.10;;;28.40;31.50;;;;;;2267996;61;20401;-66
2023/08/03 03:15:54;0.00;0.00;0.62;0.00;0.00;0.62;1.80;0.80;;;28.40;31.50;;;;;;2268111;61;20350;-58
2023/08/03 03:18:40;0.00;0.00;0.62;0.00;0.00;0.62;1.50;0.80;;;28.40;31.50;;;;;;2268557;61;20427;-58
2023/08/03 03:21:26;0.00;0.00;0.62;0.00;0.00;0.62;2.57;1.10;;;28.40;31.50;;;;;;2268356;61;20358;-58
2023/08/03 03:24:11;0.00;0.00;0.62;0.00;0.00;0.62;1.50;0.70;;;28.40;31.50;;;;;;2268887;61;20461;-62
2023/08/03 03:26:56;0.00;0.00;0.62;0.00;0.00;0.62;3.30;1.43;;;28.40;31.50;;;;;;2267423;61;20362;-59
2023/08/03 03:29:41;0.00;0.00;0.62;0.00;0.00;0.62;2.03;0.80;;;28.40;31.50;;;;;;2270057;61;20468;-59
2023/08/03 03:32:26;0.00;0.00;0.62;0.00;0.00;0.62;1.80;0.80;;;28.40;31.50;;;;;;2264797;61;20472;-59
2023/08/03 03:35:11;0.00;0.00;0.62;0.00;0.00;0.62;2.37;0.93;;;28.40;31.50;;;;;;2271096;61;20890;-61
2023/08/03 03:37:57;0.00;0.00;0.62;0.00;0.00;0.62;2.70;1.00;;;28.40;31.50;;;;;;2263804;61;20380;-59
2023/08/03 03:40:46;0.00;0.00;0.62;0.00;0.00;0.62;1.93;0.83;;;28.40;31.50;;;;;;2263040;61;20486;-59
2023/08/03 03:43:31;0.00;0.00;0.62;0.00;0.00;0.62;2.20;1.00;;;28.40;31.50;;;;;;2263832;61;20896;-59
2023/08/03 03:46:15;0.00;0.00;0.62;0.00;0.00;0.62;2.20;1.37;;;28.40;31.50;;;;;;2264673;61;20363;-61
2023/08/03 03:49:00;0.00;0.00;0.62;0.00;0.00;0.62;1.70;1.07;;;28.40;31.50;;;;;;2264373;61;20379;-61
2023/08/03 03:51:45;0.00;0.00;0.62;0.00;0.00;0.62;1.97;0.87;;;28.40;31.50;;;;;;2268393;61;20405;-59
2023/08/03 03:54:31;0.00;0.00;0.62;0.00;0.00;0.62;3.60;1.40;;;28.40;31.50;;;;;;2268208;61;20895;-59
2023/08/03 03:57:18;0.00;0.00;0.62;0.00;0.00;0.62;1.70;0.90;;;28.40;31.50;;;;;;2264338;61;20404;-61
2023/08/03 04:00:04;0.00;0.00;0.62;0.00;0.00;0.62;3.63;1.10;;;28.40;31.50;;;;;;2267586;61;20398;-59
2023/08/03 04:02:59;0.00;0.00;0.62;0.00;0.00;0.62;1.57;0.90;;;28.40;31.50;;;;;;2267931;61;20375;-59
2023/08/03 04:05:44;0.00;0.00;0.62;0.00;0.00;0.62;3.10;0.80;;;28.40;31.50;;;;;;2267685;61;20760;-59
2023/08/03 04:08:28;0.00;0.00;0.62;0.00;0.00;0.62;1.77;0.97;;;28.40;31.50;;;;;;2265223;61;20379;-60
2023/08/03 04:11:14;0.00;0.00;0.62;0.00;0.00;0.62;2.50;0.77;;;28.40;31.50;;;;;;2265202;61;20366;-62
2023/08/03 04:13:59;0.00;0.00;0.62;0.00;0.00;0.62;1.30;0.80;;;28.40;31.60;;;;;;2268570;61;20449;-59
2023/08/03 04:16:43;0.00;0.00;0.62;0.00;0.00;0.62;2.20;0.93;;;28.30;31.50;;;;;;2269009;61;20424;-59
2023/08/03 04:19:28;0.00;0.00;0.62;0.00;0.00;0.62;3.43;1.00;;;28.30;31.50;;;;;;2264346;61;20819;-60
2023/08/03 04:22:15;0.00;0.00;0.62;0.00;0.00;0.62;2.10;0.90;;;28.30;31.50;;;;;;2268667;61;20370;-60
2023/08/03 04:25:00;0.00;0.00;0.62;0.00;0.00;0.62;2.67;1.10;;;28.30;31.50;;;;;;2268526;61;20363;-58
2023/08/03 04:27:48;0.00;0.00;0.62;0.00;0.00;0.62;2.73;0.90;;;28.30;31.50;;;;;;2264865;61;20919;-56
2023/08/03 04:30:36;0.00;0.00;0.62;0.00;0.00;0.62;1.77;1.00;;;28.30;31.60;;;;;;2265360;61;20536;-61
2023/08/03 04:33:21;0.00;0.00;0.62;0.00;0.00;0.62;2.03;0.90;;;28.30;31.50;;;;;;2268666;61;20429;-62
2023/08/03 04:36:11;0.00;0.00;0.62;0.00;0.00;0.62;1.80;1.07;;;28.30;31.50;;;;;;2265528;61;20397;-62
2023/08/03 04:38:58;0.00;0.00;0.62;0.00;0.00;0.62;1.60;0.90;;;28.30;31.60;;;;;;2269145;61;20428;-58
2023/08/03 04:41:45;0.00;0.00;0.62;0.00;0.00;0.62;1.50;0.80;;;28.30;31.60;;;;;;2272160;61;20377;-58
2023/08/03 04:44:34;0.00;0.00;0.62;0.00;0.00;0.62;1.80;0.90;;;28.30;31.60;;;;;;2269320;61;20382;-61
2023/08/03 04:47:19;0.00;0.00;0.62;0.00;0.00;0.62;1.80;1.00;;;28.30;31.60;;;;;;2269607;61;20450;-59
2023/08/03 04:50:06;0.00;0.00;0.62;0.00;0.00;0.62;1.80;1.10;;;28.30;31.60;;;;;;2268428;61;20369;-56
2023/08/03 04:52:50;0.00;0.00;0.62;0.00;0.00;0.62;2.63;1.10;;;28.30;31.70;;;;;;2272806;61;20390;-58
2023/08/03 04:55:40;0.00;0.00;0.62;0.00;0.00;0.62;2.20;1.07;;;28.30;31.60;;;;;;2266047;61;20369;-53
2023/08/03 04:58:27;0.00;0.00;0.62;0.00;0.00;0.62;1.73;1.00;;;28.30;31.70;;;;;;2269049;61;20783;-58
2023/08/03 05:01:13;0.00;0.00;0.62;0.00;0.00;0.62;2.20;1.37;;;28.20;31.60;;;;;;2269478;61;20365;-57
2023/08/03 05:03:59;0.00;0.00;0.62;0.00;0.00;0.62;3.40;1.10;;;28.30;31.70;;;;;;2267828;61;20363;-55
2023/08/03 05:06:45;0.00;0.00;0.62;0.00;0.00;0.62;1.80;1.10;;;28.20;31.60;;;;;;2269366;61;20355;-60
2023/08/03 05:09:32;0.00;0.00;0.62;0.00;0.00;0.62;2.27;1.77;;;28.20;31.60;;;;;;2269060;61;20979;-61
2023/08/03 05:12:17;0.00;0.00;0.62;0.00;0.00;0.62;3.10;1.00;;;28.20;31.60;;;;;;2268603;61;20442;-60
2023/08/03 05:15:03;0.00;0.00;0.62;0.00;0.00;0.62;2.27;1.50;;;28.20;31.60;;;;;;2269531;61;20763;-59
2023/08/03 05:17:49;0.00;0.00;0.62;0.00;0.00;0.62;2.10;1.30;;;28.20;31.60;;;;;;2272220;60;20366;-61
2023/08/03 05:20:35;0.00;0.00;0.62;0.00;0.00;0.62;1.57;1.00;;;28.20;31.60;;;;;;2269104;61;20953;-59
2023/08/03 05:23:20;0.00;0.00;0.62;0.00;0.00;0.62;2.23;1.20;;;28.20;31.60;;;;;;2268783;61;20354;-57
2023/08/03 05:26:05;0.00;0.00;0.62;0.00;0.00;0.62;2.43;1.30;;;28.20;31.70;;;;;;2272009;61;20770;-57
2023/08/03 05:28:50;0.00;0.00;0.62;0.00;0.00;0.62;1.83;1.10;;;28.20;32.30;;;;;;2272316;60;20381;-59
2023/08/03 05:31:35;0.00;0.00;0.62;0.00;0.00;0.62;1.90;1.30;;;28.20;31.70;;;;;;2269358;61;20405;-60
2023/08/03 05:34:21;0.00;0.00;0.62;0.00;0.00;0.62;2.03;1.30;;;28.20;31.70;;;;;;2271810;61;20405;-59
2023/08/03 05:37:06;0.00;0.00;0.62;0.00;0.00;0.62;2.43;1.30;;;28.20;31.70;;;;;;2270373;61;20448;-59
2023/08/03 05:39:51;0.00;0.00;0.62;0.00;0.00;0.62;1.83;1.40;;;28.20;31.70;;;;;;2267960;61;20425;-58
2023/08/03 05:42:38;0.00;0.00;0.62;0.00;0.00;0.62;1.80;1.20;;;28.20;31.70;;;;;;2265208;61;20355;-61
2023/08/03 05:45:45;0.00;0.00;0.62;0.00;0.00;0.62;3.23;1.83;;;28.10;31.70;;;;;;2268453;61;20543;-58
2023/08/03 05:48:30;0.00;0.00;0.62;0.00;0.00;0.62;2.47;1.40;;;28.20;31.80;;;;;;2267456;61;20785;-58
2023/08/03 05:51:26;0.00;0.00;0.62;0.00;0.00;0.62;2.17;1.53;;;28.20;31.80;;;;;;2268568;61;20360;-56
2023/08/03 05:54:18;0.00;0.00;0.62;0.00;0.00;0.62;2.43;1.60;;;28.20;31.80;;;;;;2268436;61;20543;-58
2023/08/03 05:57:05;0.00;0.00;0.62;0.00;0.00;0.62;1.90;1.40;;;28.10;31.70;;;;;;2267925;61;20481;-59
2023/08/03 05:59:50;0.00;0.00;0.62;0.00;0.00;0.62;3.57;1.37;;;28.10;31.70;;;;;;2264884;61;20398;-58
2023/08/03 06:02:35;0.00;0.00;0.62;0.00;0.00;0.62;3.20;1.53;;;28.10;31.70;;;;;;2267663;61;20444;-58
2023/08/03 06:05:49;0.00;0.00;0.62;0.00;0.00;0.62;2.00;1.23;;;28.20;31.90;;;;;;2265258;61;20358;-60
2023/08/03 06:08:35;0.00;0.00;0.62;0.00;0.00;0.62;2.03;1.53;;;28.10;31.80;;;;;;2264102;61;20433;-61
2023/08/03 06:11:21;0.00;0.00;0.62;0.00;0.00;0.62;1.73;1.17;;;28.10;31.80;;;;;;2267994;61;20410;-60
2023/08/03 06:14:10;0.00;0.00;0.62;0.00;0.00;0.62;1.63;1.23;;;28.10;31.80;;;;;;2268331;61;20433;-59
2023/08/03 06:16:56;0.00;0.00;0.62;0.00;0.00;0.62;2.40;1.60;;;28.10;31.80;;;;;;2268451;61;20781;-62
2023/08/03 06:19:41;0.00;0.00;0.62;0.00;0.00;0.62;1.97;1.43;;;28.10;31.80;;;;;;2267807;61;20391;-59
2023/08/03 06:22:26;0.00;0.00;0.62;0.00;0.00;0.62;2.27;1.23;;;28.10;31.80;;;;;;2268331;61;20352;-65
2023/08/03 06:25:12;0.00;0.00;0.62;0.00;0.00;0.62;2.20;1.10;;;28.10;31.80;;;;;;2267143;61;20809;-60
2023/08/03 06:28:01;0.00;0.00;0.62;0.00;0.00;0.62;2.23;1.20;;;28.10;32.50;;;;;;2268390;61;20371;-60
2023/08/03 06:30:47;0.00;0.00;0.62;0.00;0.00;0.62;1.80;1.20;;;28.10;31.80;;;;;;2268180;61;20839;-59
2023/08/03 06:33:32;0.00;0.00;0.62;0.00;0.00;0.62;1.87;1.20;;;28.10;31.80;;;;;;2267785;61;20440;-58
2023/08/03 06:36:19;0.00;0.00;0.62;0.00;0.00;0.62;2.33;1.40;;;28.10;31.80;;;;;;2268753;61;20419;-61
2023/08/03 06:39:04;0.00;0.00;0.62;0.00;0.00;0.62;2.23;1.50;;;28.10;31.80;;;;;;2271776;60;20452;-57
2023/08/03 06:41:51;0.00;0.00;0.62;0.00;0.00;0.62;1.60;1.10;;;28.10;31.90;;;;;;2272487;61;20614;-59
2023/08/03 06:44:36;0.00;0.00;0.62;0.00;0.00;0.62;1.83;1.20;;;28.10;31.90;;;;;;2269170;61;20358;-60
2023/08/03 06:47:22;0.00;0.00;0.62;0.00;0.00;0.62;1.77;1.40;;;28.10;31.80;;;;;;2271905;61;20390;-57
2023/08/03 06:50:08;0.00;0.00;0.62;0.00;0.00;0.62;2.70;1.57;;;28.10;31.90;;;;;;2272008;61;20389;-61
2023/08/03 06:52:53;0.00;0.00;0.62;0.00;0.00;0.62;1.83;1.30;;;28.10;31.90;;;;;;2272323;61;20432;-60
2023/08/03 06:55:38;0.00;0.00;0.62;0.00;0.00;0.62;1.67;1.00;;;28.10;31.90;;;;;;2271932;61;20440;-60
2023/08/03 06:58:24;0.00;0.00;0.62;0.00;0.00;0.62;2.43;1.60;;;28.10;31.90;;;;;;2271666;60;20375;-59
2023/08/03 07:01:08;0.00;0.00;0.62;0.00;0.00;0.62;2.80;1.60;;;28.10;31.90;;;;;;2271822;61;20455;-59
2023/08/03 07:03:53;0.00;0.00;0.62;0.00;0.00;0.62;2.33;1.30;;;28.10;31.90;;;;;;2271610;61;20397;-57
2023/08/03 07:06:37;0.00;0.00;0.62;0.00;0.00;0.62;2.70;1.73;;;28.10;31.90;;;;;;2271759;61;20443;-59
2023/08/03 07:09:22;0.00;0.00;0.62;0.00;0.00;0.62;2.00;1.23;;;28.10;31.90;;;;;;2270840;60;20377;-59
2023/08/03 07:12:09;0.00;0.00;0.62;0.00;0.00;0.62;2.10;1.20;;;28.10;31.90;;;;;;2271790;61;20997;-61
2023/08/03 07:14:55;0.00;0.00;0.62;0.00;0.00;0.62;2.33;1.43;;;28.10;31.90;;;;;;2271237;61;20347;-63
2023/08/03 07:17:40;0.00;0.00;0.62;0.00;0.00;0.62;2.03;1.30;;;28.10;32.00;;;;;;2271837;61;20851;-58
2023/08/03 07:20:24;0.00;0.00;0.62;0.00;0.00;0.62;2.47;1.30;;;28.10;31.90;;;;;;2271668;61;20370;-59
2023/08/03 07:23:09;0.00;0.00;0.62;0.00;0.00;0.62;2.07;1.20;;;28.10;32.00;;;;;;2272137;61;20363;-57
2023/08/03 07:25:54;0.00;0.00;0.62;0.00;0.00;0.62;2.43;1.50;;;28.10;32.00;;;;;;2271662;61;20800;-58
2023/08/03 07:28:39;0.00;0.00;0.62;0.00;0.00;0.62;1.93;1.47;;;28.10;32.00;;;;;;2271778;60;20386;-59
2023/08/03 07:31:27;0.00;0.00;0.62;0.00;0.00;0.62;1.80;1.00;;;28.10;32.10;;;;;;2271706;61;20396;-62
2023/08/03 07:34:12;0.00;0.00;0.62;0.00;0.00;0.62;2.20;1.30;;;28.10;32.10;;;;;;2272087;61;20382;-63
2023/08/03 07:36:58;0.00;0.00;0.62;0.00;0.00;0.62;1.80;1.00;;;28.10;32.10;;;;;;2270428;61;21087;-62
2023/08/03 07:39:42;0.00;0.00;0.62;0.00;0.00;0.62;2.17;1.40;;;28.10;32.20;;;;;;2266901;61;20379;-62
2023/08/03 07:42:28;0.00;0.00;0.62;0.00;0.00;0.62;1.90;1.20;;;28.10;32.20;;;;;;2268168;61;20410;-62
2023/08/03 07:45:12;0.00;0.00;0.62;0.00;0.00;0.62;1.87;1.10;;;28.10;32.10;;;;;;2268141;61;20887;-62
2023/08/03 07:47:58;0.00;0.00;0.62;0.00;0.00;0.62;2.27;1.30;;;28.10;32.10;;;;;;2267240;61;20447;-62
2023/08/03 07:50:43;0.00;0.00;0.62;0.00;0.00;0.62;1.70;1.23;;;28.10;32.10;;;;;;2268063;61;20452;-62
2023/08/03 07:53:28;0.00;0.00;0.62;0.00;0.00;0.62;2.03;1.17;;;28.10;32.10;;;;;;2267472;61;20375;-63
2023/08/03 07:56:17;0.00;0.00;0.62;0.00;0.00;0.62;2.03;1.10;;;28.10;32.10;;;;;;2268122;61;20359;-62
2023/08/03 07:59:01;0.00;0.00;0.62;0.00;0.00;0.62;1.60;1.00;;;28.10;32.20;;;;;;2267738;61;20383;-62
2023/08/03 08:01:46;0.00;0.00;0.62;0.00;0.00;0.62;1.83;1.10;;;28.10;32.20;;;;;;2264242;61;20359;-68
2023/08/03 08:04:32;0.00;0.00;0.62;0.00;0.00;0.62;2.20;1.13;;;28.10;32.20;;;;;;2267989;61;20355;-63
2023/08/03 08:07:17;0.00;0.00;0.62;0.00;0.00;0.62;2.80;1.40;;;28.00;32.10;;;;;;2268073;61;20412;-66
2023/08/03 08:10:02;0.00;0.00;0.62;0.00;0.00;0.62;2.30;1.40;;;28.00;32.10;;;;;;2266905;61;20390;-62
2023/08/03 08:12:47;0.00;0.00;0.62;0.00;0.00;0.62;1.50;1.10;;;28.10;32.10;;;;;;2264848;61;20387;-62
2023/08/03 08:15:36;0.00;0.00;0.62;0.00;0.00;0.62;2.20;1.37;;;28.10;32.10;;;;;;2267832;61;20399;-61
2023/08/03 08:18:21;0.00;0.00;0.62;0.00;0.00;0.62;1.50;1.00;;;28.00;32.10;;;;;;2267606;61;20448;-62
2023/08/03 08:21:10;0.00;0.00;0.62;0.00;0.00;0.62;2.10;1.20;;;28.10;32.10;;;;;;2267927;61;20371;-62
2023/08/03 08:23:55;0.00;0.00;0.62;0.00;0.00;0.62;2.33;1.50;;;28.00;32.10;;;;;;2267283;61;20911;-61
2023/08/03 08:26:40;0.00;0.00;0.62;0.00;0.00;0.62;1.80;1.43;;;28.00;32.10;;;;;;2267888;61;20402;-60
2023/08/03 08:29:24;0.00;0.00;0.62;0.00;0.00;0.62;2.50;1.50;;;28.00;32.10;;;;;;2267566;61;20457;-64
2023/08/03 08:32:09;0.00;0.00;0.62;0.00;0.00;0.62;2.17;1.60;;;28.00;32.10;;;;;;2267135;61;20359;-63
2023/08/03 08:34:53;0.00;0.00;0.62;0.00;0.00;0.62;2.07;1.40;;;28.00;32.10;;;;;;2268100;61;20374;-63
2023/08/03 08:37:39;0.00;0.00;0.62;0.00;0.00;0.62;1.80;1.27;;;28.00;32.10;;;;;;2270354;61;20385;-63
2023/08/03 08:40:24;0.00;0.00;0.62;0.00;0.00;0.62;2.37;1.40;;;28.00;32.10;;;;;;2271802;61;20358;-61
2023/08/03 08:43:08;0.00;0.00;0.62;0.00;0.00;0.62;2.03;1.43;;;28.10;32.20;;;;;;2272124;61;20491;-62
2023/08/03 08:45:54;0.00;0.00;0.62;0.00;0.00;0.62;2.67;1.40;;;28.00;32.10;;;;;;2271237;61;20890;-62
2023/08/03 08:48:39;0.00;0.00;0.62;0.00;0.00;0.62;2.03;1.40;;;28.00;32.10;;;;;;2271338;60;20373;-59
2023/08/03 08:51:26;0.00;0.00;0.62;0.00;0.00;0.62;2.80;1.53;;;28.00;32.10;;;;;;2272099;60;20641;-62
2023/08/03 08:54:12;0.00;0.00;0.62;0.00;0.00;0.62;1.60;1.27;;;28.00;32.10;;;;;;2272109;61;20382;-61
2023/08/03 08:56:57;0.00;0.00;0.62;0.00;0.00;0.62;2.03;1.33;;;28.00;32.10;;;;;;2272564;61;20504;-63
2023/08/03 09:00:05;0.00;0.00;0.62;0.00;0.00;0.62;1.87;1.40;;;28.00;32.10;;;;;;2272136;61;20436;-61
2023/08/03 09:02:54;0.00;0.00;0.62;0.00;0.00;0.62;3.10;1.20;;;28.00;32.10;;;;;;2272842;61;20404;-61
2023/08/03 09:05:39;0.00;0.00;0.62;0.00;0.00;0.62;1.93;1.20;;;28.00;32.10;;;;;;2272732;61;20362;-62
2023/08/03 09:08:23;0.00;0.00;0.62;0.00;0.00;0.62;1.73;1.20;;;28.00;32.10;;;;;;2271764;60;20761;-62
2023/08/03 09:11:09;0.00;0.00;0.62;0.00;0.00;0.62;1.70;1.17;;;28.00;32.10;;;;;;2272747;61;20354;-62
2023/08/03 09:13:54;0.00;0.00;0.62;0.00;0.00;0.62;1.80;1.10;;;28.00;32.10;;;;;;2272668;61;20422;-61
2023/08/03 09:16:39;0.00;0.00;0.62;0.00;0.00;0.62;1.70;1.10;;;28.00;32.10;;;;;;2272192;61;20358;-61
2023/08/03 09:19:37;0.00;0.00;0.62;0.00;0.00;0.62;1.83;1.10;;;28.00;32.10;;;;;;2272125;60;20377;-62
2023/08/03 09:22:24;0.00;0.00;0.62;0.00;0.00;0.62;1.87;1.10;;;28.00;32.10;;;;;;2272100;61;20461;-63
2023/08/03 09:25:10;0.00;0.00;0.62;0.00;0.00;0.62;1.53;1.00;;;28.00;32.10;;;;;;2272642;61;20496;-62
2023/08/03 09:27:56;0.00;0.00;0.62;0.00;0.00;0.62;1.53;1.10;;;28.00;32.10;;;;;;2272740;60;20363;-63
2023/08/03 09:30:49;0.00;0.00;0.62;0.00;0.00;0.62;1.50;0.90;;;28.00;32.10;;;;;;2271959;61;20405;-63
2023/08/03 09:33:35;0.00;0.00;0.62;0.00;0.00;0.62;1.60;0.90;;;28.00;32.10;;;;;;2272492;61;20417;-62
2023/08/03 09:36:20;0.00;0.00;0.62;0.00;0.00;0.62;1.53;1.03;;;28.00;32.10;;;;;;2272111;61;20799;-67
2023/08/03 09:39:15;0.00;0.00;0.62;0.00;0.00;0.62;2.40;1.00;;;28.00;32.10;;;;;;2267407;61;20433;-62
2023/08/03 09:42:03;0.00;0.00;0.62;0.00;0.00;0.62;1.40;0.83;;;28.00;32.10;;;;;;2268510;61;20371;-63
2023/08/03 09:44:50;0.00;0.00;0.62;0.00;0.00;0.62;1.60;1.00;;;28.00;32.10;;;;;;2267596;61;20363;-66
2023/08/03 09:47:35;0.00;0.00;0.62;0.00;0.00;0.62;1.53;1.00;;;28.00;32.10;;;;;;2268396;61;20363;-58
2023/08/03 09:50:20;0.00;0.00;0.62;0.00;0.00;0.62;1.77;0.83;;;28.00;32.10;;;;;;2501661;53;20839;-60
2023/08/03 09:53:13;0.00;0.00;0.62;0.00;0.00;0.62;1.90;1.00;;;28.00;32.10;;;;;;2263804;61;20446;-58
2023/08/03 09:56:01;0.00;0.00;0.62;0.00;0.00;0.62;1.50;0.80;;;28.00;32.10;;;;;;2264601;61;20448;-60
2023/08/03 09:58:52;0.00;0.00;0.62;0.00;0.00;0.62;1.60;1.00;;;28.00;32.10;;;;;;2264216;61;20788;-61
2023/08/03 10:01:41;0.00;0.00;0.62;0.00;0.00;0.62;1.70;0.90;;;28.00;32.10;;;;;;2264326;61;20364;-56
2023/08/03 10:04:29;0.00;0.00;0.62;0.00;0.00;0.62;1.40;0.80;;;28.00;32.10;;;;;;2264460;61;20387;-58
2023/08/03 10:07:17;0.00;0.00;0.62;0.00;0.00;0.62;1.30;0.70;;;28.00;32.10;;;;;;2264182;61;20980;-58
2023/08/03 10:10:06;0.00;0.00;0.62;0.00;0.00;0.62;1.40;0.77;;;28.00;32.10;;;;;;2264220;61;20376;-60
2023/08/03 10:12:57;0.00;0.00;0.62;0.00;0.00;0.62;1.40;0.87;;;28.00;32.10;;;;;;2264585;61;20423;-59
2023/08/03 10:15:42;0.00;0.00;0.62;0.00;0.00;0.62;1.40;0.80;;;28.00;32.10;;;;;;2263991;61;20964;-59
2023/08/03 10:18:30;0.00;0.00;0.62;0.00;0.00;0.62;2.67;0.90;;;28.00;32.10;;;;;;2264113;61;20376;-61
2023/08/03 10:21:15;0.00;0.00;0.62;0.00;0.00;0.62;1.40;0.90;;;28.00;32.20;;;;;;2264235;61;20375;-61
2023/08/03 10:24:12;0.00;0.00;0.62;0.00;0.00;0.62;1.83;0.90;;;28.00;32.20;;;;;;2264230;61;20487;-56
2023/08/03 10:27:19;0.00;0.00;0.62;0.00;0.00;0.62;1.60;0.97;;;28.00;32.30;;;;;;2269229;61;20513;-57
2023/08/03 10:30:05;0.00;0.00;0.62;0.00;0.00;0.62;1.40;1.00;;;28.00;32.30;;;;;;2266898;61;20437;-57
2023/08/03 10:32:51;0.00;0.00;0.62;0.00;0.00;0.62;1.50;0.90;;;28.00;32.30;;;;;;2268069;61;20386;-57
2023/08/03 10:35:38;0.00;0.00;0.62;0.00;0.00;0.62;2.23;1.07;;;28.00;32.30;;;;;;2267970;61;20757;-59
2023/08/03 10:38:23;0.00;0.00;0.62;0.00;0.00;0.62;1.47;0.90;;;28.00;32.40;;;;;;2267776;61;20421;-59
2023/08/03 10:41:21;0.00;0.00;0.62;0.00;0.00;0.62;1.60;1.07;;;28.00;33.10;;;;;;2268492;61;20398;-58
2023/08/03 10:44:27;0.00;0.00;0.62;0.00;0.00;0.62;1.43;0.93;;;28.00;32.40;;;;;;2267804;61;20805;-59
2023/08/03 10:47:23;0.00;0.00;0.62;0.00;0.00;0.62;1.60;1.00;;;28.00;32.40;;;;;;2268245;61;20358;-60
2023/08/03 10:50:08;0.00;0.00;0.62;0.00;0.00;0.62;1.40;0.90;;;28.00;32.50;;;;;;2268102;61;20446;-56
2023/08/03 10:52:54;0.00;0.00;0.62;0.00;0.00;0.62;1.70;1.10;;;28.00;32.50;;;;;;2267759;61;20417;-59
2023/08/03 10:55:39;0.00;0.00;0.62;0.00;0.00;0.62;1.67;1.00;;;28.00;32.60;;;;;;2268498;61;20446;-58
2023/08/03 10:58:27;0.00;0.00;0.62;0.00;0.00;0.62;1.70;1.03;;;28.00;32.60;;;;;;2267488;61;20953;-59